createdAt,value
2018-08-28T00:00:17.318Z,16.50
2018-08-28T00:02:46.202Z,16.50
2018-08-28T00:05:15.113Z,16.40
2018-08-28T00:07:44.053Z,16.40
2018-08-28T00:10:12.952Z,16.30
2018-08-28T00:12:41.943Z,16.30
2018-08-28T00:15:10.875Z,16.30
2018-08-28T00:17:39.782Z,16.20
2018-08-28T00:20:08.723Z,16.10
2018-08-28T00:22:37.591Z,16.00
2018-08-28T00:25:06.498Z,15.90
2018-08-28T00:27:36.442Z,16.00
2018-08-28T00:30:05.411Z,16.00
2018-08-28T00:32:34.397Z,15.90
2018-08-28T00:35:03.370Z,15.90
2018-08-28T00:37:32.267Z,15.90
2018-08-28T00:40:01.201Z,15.90
2018-08-28T00:42:30.258Z,15.90
2018-08-28T00:44:59.195Z,15.90
2018-08-28T00:47:28.086Z,16.00
2018-08-28T00:49:57.189Z,16.10
2018-08-28T00:52:26.312Z,16.20
2018-08-28T00:54:55.187Z,16.20
2018-08-28T00:57:24.106Z,16.30
2018-08-28T00:59:53.042Z,16.40
2018-08-28T01:02:21.974Z,16.40
2018-08-28T01:04:50.866Z,16.40
2018-08-28T01:07:19.758Z,16.40
2018-08-28T01:09:48.646Z,16.40
2018-08-28T01:12:17.533Z,16.40
2018-08-28T01:14:46.539Z,16.50
2018-08-28T01:17:15.311Z,16.50
2018-08-28T01:19:44.225Z,16.60
2018-08-28T01:22:13.101Z,16.60
2018-08-28T01:24:42.039Z,16.60
2018-08-28T01:27:10.922Z,16.80
2018-08-28T01:29:39.922Z,16.80
2018-08-28T01:32:08.862Z,16.70
2018-08-28T01:34:37.810Z,16.70
2018-08-28T01:37:07.218Z,16.70
2018-08-28T01:39:36.123Z,16.80
2018-08-28T01:42:05.933Z,16.80
2018-08-28T01:44:34.853Z,16.70
2018-08-28T01:47:03.885Z,16.70
2018-08-28T01:49:32.757Z,16.80
2018-08-28T01:52:01.646Z,16.90
2018-08-28T01:54:30.531Z,16.90
2018-08-28T01:56:59.422Z,16.90
2018-08-28T01:59:28.350Z,16.90
2018-08-28T02:01:57.391Z,16.90
2018-08-28T02:04:26.427Z,16.70
2018-08-28T02:06:55.330Z,16.60
2018-08-28T02:09:24.331Z,16.60
2018-08-28T02:11:53.220Z,16.60
2018-08-28T02:14:23.163Z,16.70
2018-08-28T02:16:52.069Z,16.70
2018-08-28T02:19:20.983Z,16.70
2018-08-28T02:21:49.886Z,16.70
2018-08-28T02:24:18.765Z,16.70
2018-08-28T02:26:47.693Z,16.70
2018-08-28T02:29:17.462Z,16.70
2018-08-28T02:31:46.349Z,16.70
2018-08-28T02:34:15.238Z,16.80
2018-08-28T02:36:44.153Z,16.70
2018-08-28T02:39:13.054Z,16.70
2018-08-28T02:41:42.840Z,16.60
2018-08-28T02:44:12.317Z,16.70
2018-08-28T02:46:41.189Z,16.70
2018-08-28T02:49:10.078Z,16.70
2018-08-28T02:51:39.057Z,16.70
2018-08-28T02:54:07.954Z,16.70
2018-08-28T02:56:36.847Z,16.70
2018-08-28T02:59:06.010Z,16.70
2018-08-28T03:01:34.921Z,16.70
2018-08-28T03:04:03.795Z,16.70
2018-08-28T03:06:32.739Z,16.60
2018-08-28T03:09:01.623Z,16.50
2018-08-28T03:11:30.538Z,16.60
2018-08-28T03:13:59.399Z,16.40
2018-08-28T03:16:28.324Z,16.50
2018-08-28T03:18:57.345Z,16.50
2018-08-28T03:21:26.278Z,16.40
2018-08-28T03:23:55.198Z,16.40
2018-08-28T03:26:24.135Z,16.40
2018-08-28T03:28:53.071Z,16.40
2018-08-28T03:31:21.939Z,16.40
2018-08-28T03:33:50.948Z,16.50
2018-08-28T03:36:19.849Z,16.60
2018-08-28T03:38:48.778Z,16.60
2018-08-28T03:41:17.702Z,16.50
2018-08-28T03:43:46.581Z,16.50
2018-08-28T03:46:15.457Z,16.50
2018-08-28T03:48:44.458Z,16.50
2018-08-28T03:51:13.406Z,16.60
2018-08-28T03:53:42.329Z,16.60
2018-08-28T03:56:11.246Z,16.70
2018-08-28T03:58:40.115Z,16.70
2018-08-28T04:01:09.080Z,16.60
2018-08-28T04:03:38.228Z,16.60
2018-08-28T04:06:07.332Z,16.60
2018-08-28T04:08:37.225Z,16.50
2018-08-28T04:11:06.133Z,16.40
2018-08-28T04:13:35.058Z,16.30
2018-08-28T04:16:03.933Z,16.20
2018-08-28T04:18:32.829Z,16.10
2018-08-28T04:21:02.263Z,16.10
2018-08-28T04:23:31.129Z,16.10
2018-08-28T04:26:00.065Z,16.10
2018-08-28T04:28:29.242Z,16.00
2018-08-28T04:31:09.555Z,16.00
2018-08-28T04:33:39.306Z,16.00
2018-08-28T04:36:08.209Z,15.90
2018-08-28T04:38:37.101Z,15.80
2018-08-28T04:41:06.065Z,15.70
2018-08-28T04:43:34.993Z,15.80
2018-08-28T04:46:03.911Z,15.80
2018-08-28T04:48:32.937Z,15.80
2018-08-28T04:51:03.490Z,15.90
2018-08-28T04:53:41.647Z,16.00
2018-08-28T04:56:14.666Z,16.00
2018-08-28T04:58:43.625Z,16.10
2018-08-28T05:01:14.691Z,16.20
2018-08-28T05:03:44.292Z,16.30
2018-08-28T05:06:13.181Z,16.40
2018-08-28T05:08:42.058Z,16.40
2018-08-28T05:11:11.077Z,16.40
2018-08-28T05:13:40.933Z,16.40
2018-08-28T05:16:09.988Z,16.50
2018-08-28T05:18:39.015Z,16.60
2018-08-28T05:21:07.922Z,16.60
2018-08-28T05:23:36.806Z,16.70
2018-08-28T05:26:05.726Z,16.70
2018-08-28T05:28:36.551Z,16.70
2018-08-28T05:31:05.763Z,16.60
2018-08-28T05:33:34.726Z,16.70
2018-08-28T05:36:03.639Z,16.60
2018-08-28T05:38:32.518Z,16.70
2018-08-28T05:41:01.410Z,16.60
2018-08-28T05:43:30.406Z,16.70
2018-08-28T05:45:59.298Z,16.80
2018-08-28T05:48:28.233Z,16.80
2018-08-28T05:50:57.282Z,16.90
2018-08-28T05:53:26.303Z,16.90
2018-08-28T05:55:55.282Z,16.90
2018-08-28T05:58:30.614Z,16.80
2018-08-28T06:00:59.564Z,16.90
2018-08-28T06:03:28.739Z,17.00
2018-08-28T06:05:57.482Z,17.00
2018-08-28T06:08:26.430Z,17.00
2018-08-28T06:10:55.480Z,17.10
2018-08-28T06:13:24.449Z,17.20
2018-08-28T06:15:53.435Z,17.20
2018-08-28T06:18:22.585Z,17.30
2018-08-28T06:20:51.534Z,17.40
2018-08-28T06:23:20.958Z,17.30
2018-08-28T06:25:49.850Z,17.30
2018-08-28T06:28:18.834Z,17.30
2018-08-28T06:30:47.718Z,17.30
2018-08-28T06:33:16.663Z,17.50
2018-08-28T06:35:45.551Z,17.50
2018-08-28T06:38:14.455Z,17.70
2018-08-28T06:40:43.382Z,17.80
2018-08-28T06:43:12.270Z,17.80
2018-08-28T06:45:41.148Z,17.90
2018-08-28T06:48:10.051Z,17.80
2018-08-28T06:50:38.942Z,17.80
2018-08-28T06:53:07.842Z,17.80
2018-08-28T06:55:37.240Z,17.80
2018-08-28T06:58:06.202Z,17.80
2018-08-28T07:00:35.066Z,17.80
2018-08-28T07:03:04.012Z,17.80
2018-08-28T07:05:33.186Z,18.00
2018-08-28T07:08:03.115Z,18.00
2018-08-28T07:10:32.250Z,18.20
2018-08-28T07:13:01.170Z,18.30
2018-08-28T07:15:30.066Z,18.50
2018-08-28T07:17:58.986Z,18.60
2018-08-28T07:20:27.919Z,18.70
2018-08-28T07:22:56.909Z,18.70
2018-08-28T07:25:25.923Z,18.90
2018-08-28T07:27:55.009Z,18.90
2018-08-28T07:30:23.934Z,19.00
2018-08-28T07:32:52.965Z,19.30
2018-08-28T07:35:21.854Z,19.20
2018-08-28T07:37:50.752Z,19.20
2018-08-28T07:40:20.105Z,19.40
2018-08-28T07:42:49.046Z,19.70
2018-08-28T07:45:18.914Z,19.60
2018-08-28T07:47:48.492Z,19.60
2018-08-28T07:50:17.574Z,19.60
2018-08-28T07:52:47.305Z,19.70
2018-08-28T07:55:16.225Z,19.90
2018-08-28T07:57:47.482Z,19.80
2018-08-28T08:00:19.590Z,19.90
2018-08-28T08:02:48.735Z,19.90
2018-08-28T08:05:17.703Z,19.80
2018-08-28T08:07:46.586Z,19.90
2018-08-28T08:10:15.517Z,19.70
2018-08-28T08:12:46.332Z,19.50
2018-08-28T08:15:16.162Z,19.70
2018-08-28T08:17:45.065Z,19.70
2018-08-28T08:20:14.035Z,19.80
2018-08-28T08:22:42.936Z,20.00
2018-08-28T08:25:13.867Z,20.10
2018-08-28T08:27:44.251Z,20.20
2018-08-28T08:30:14.017Z,20.20
2018-08-28T08:32:42.894Z,20.40
2018-08-28T08:35:11.937Z,20.50
2018-08-28T08:37:41.567Z,20.50
2018-08-28T08:40:10.694Z,20.50
2018-08-28T08:42:39.582Z,20.80
2018-08-28T08:45:08.550Z,20.60
2018-08-28T08:47:37.470Z,20.60
2018-08-28T08:50:06.394Z,20.80
2018-08-28T08:52:35.320Z,21.00
2018-08-28T08:55:05.279Z,21.10
2018-08-28T08:57:34.266Z,21.20
2018-08-28T09:00:03.184Z,21.10
2018-08-28T09:02:32.088Z,20.80
2018-08-28T09:05:00.990Z,21.00
2018-08-28T09:07:29.953Z,21.30
2018-08-28T09:09:59.002Z,21.50
2018-08-28T09:12:28.584Z,21.50
2018-08-28T09:14:58.602Z,21.60
2018-08-28T09:17:34.082Z,21.70
2018-08-28T09:20:02.979Z,21.80
2018-08-28T09:22:31.890Z,21.60
2018-08-28T09:25:00.770Z,21.60
2018-08-28T09:27:29.711Z,21.90
2018-08-28T09:29:58.674Z,22.00
2018-08-28T09:32:27.730Z,22.00
2018-08-28T09:34:56.542Z,21.90
2018-08-28T09:37:25.523Z,21.80
2018-08-28T09:39:54.573Z,21.40
2018-08-28T09:42:23.573Z,21.50
2018-08-28T09:44:52.686Z,21.40
2018-08-28T09:47:21.845Z,21.50
2018-08-28T09:49:50.803Z,21.70
2018-08-28T09:52:19.751Z,21.80
2018-08-28T09:54:48.670Z,22.20
2018-08-28T09:57:18.535Z,22.30
2018-08-28T09:59:47.902Z,22.30
2018-08-28T10:02:16.842Z,22.50
2018-08-28T10:04:46.633Z,22.50
2018-08-28T10:07:15.483Z,22.80
2018-08-28T10:09:44.439Z,23.20
2018-08-28T10:12:13.340Z,23.10
2018-08-28T10:14:42.253Z,23.10
2018-08-28T10:17:11.284Z,22.90
2018-08-28T10:19:40.299Z,23.00
2018-08-28T10:22:09.185Z,23.30
2018-08-28T10:24:38.066Z,23.50
2018-08-28T10:27:06.966Z,23.50
2018-08-28T10:29:36.839Z,23.60
2018-08-28T10:32:06.525Z,23.40
2018-08-28T10:34:35.462Z,23.20
2018-08-28T10:37:04.547Z,23.30
2018-08-28T10:39:33.762Z,23.60
2018-08-28T10:42:02.654Z,23.70
2018-08-28T10:44:31.536Z,23.90
2018-08-28T10:47:00.522Z,23.90
2018-08-28T10:49:29.391Z,23.60
2018-08-28T10:52:03.685Z,23.90
2018-08-28T10:54:33.170Z,24.10
2018-08-28T10:57:02.269Z,24.50
2018-08-28T10:59:32.078Z,24.50
2018-08-28T11:02:00.990Z,24.60
2018-08-28T11:04:29.958Z,24.80
2018-08-28T11:06:58.804Z,25.00
2018-08-28T11:09:27.889Z,24.90
2018-08-28T11:11:57.275Z,24.80
2018-08-28T11:14:26.678Z,25.00
2018-08-28T11:16:56.130Z,25.20
2018-08-28T11:19:25.209Z,25.20
2018-08-28T11:21:54.241Z,25.10
2018-08-28T11:24:23.246Z,24.80
2018-08-28T11:26:52.710Z,25.10
2018-08-28T11:29:21.878Z,25.10
2018-08-28T11:31:50.838Z,25.40
2018-08-28T11:34:20.411Z,25.60
2018-08-28T11:36:50.332Z,26.00
2018-08-28T11:39:19.218Z,25.70
2018-08-28T11:41:48.213Z,25.80
2018-08-28T11:44:17.102Z,25.80
2018-08-28T11:46:46.006Z,26.10
2018-08-28T11:49:14.917Z,26.40
2018-08-28T11:51:43.813Z,26.60
2018-08-28T11:54:12.758Z,26.40
2018-08-28T11:56:42.115Z,26.60
2018-08-28T11:59:10.994Z,26.60
2018-08-28T12:01:39.866Z,26.60
2018-08-28T12:04:08.982Z,26.80
2018-08-28T12:06:37.928Z,26.80
2018-08-28T12:09:07.950Z,27.20
2018-08-28T12:11:36.849Z,27.30
2018-08-28T12:14:05.767Z,27.50
2018-08-28T12:16:34.641Z,27.50
2018-08-28T12:19:03.827Z,27.60
2018-08-28T12:21:32.709Z,27.90
2018-08-28T12:24:01.601Z,28.00
2018-08-28T12:26:30.544Z,27.90
2018-08-28T12:28:59.475Z,27.80
2018-08-28T12:31:28.474Z,28.00
2018-08-28T12:33:57.366Z,28.00
2018-08-28T12:36:26.331Z,27.80
2018-08-28T12:38:55.271Z,28.30
2018-08-28T12:41:24.223Z,28.20
2018-08-28T12:43:53.181Z,28.00
2018-08-28T12:46:22.066Z,28.00
2018-08-28T12:48:51.002Z,27.90
2018-08-28T12:51:20.688Z,28.00
2018-08-28T12:53:50.525Z,28.00
2018-08-28T12:56:20.353Z,28.20
2018-08-28T12:58:49.266Z,28.20
2018-08-28T13:01:18.254Z,28.30
2018-08-28T13:03:47.158Z,28.40
2018-08-28T13:06:16.049Z,28.50
2018-08-28T13:08:44.950Z,28.50
2018-08-28T13:11:13.918Z,28.70
2018-08-28T13:13:43.382Z,28.90
2018-08-28T13:16:12.297Z,29.00
2018-08-28T13:18:41.186Z,29.00
2018-08-28T13:21:10.074Z,29.10
2018-08-28T13:23:39.958Z,28.70
2018-08-28T13:26:09.839Z,28.50
2018-08-28T13:28:38.666Z,29.10
2018-08-28T13:31:07.827Z,29.00
2018-08-28T13:33:36.748Z,29.20
2018-08-28T13:36:05.650Z,29.90
2018-08-28T13:38:34.555Z,30.00
2018-08-28T13:41:03.494Z,30.30
2018-08-28T13:43:32.390Z,30.50
2018-08-28T13:46:01.421Z,30.30
2018-08-28T13:48:30.338Z,30.40
2018-08-28T13:50:59.342Z,30.30
2018-08-28T13:53:28.944Z,30.00
2018-08-28T13:55:58.062Z,30.10
2018-08-28T13:58:27.218Z,30.10
2018-08-28T14:00:57.229Z,30.50
2018-08-28T14:03:26.222Z,30.50
2018-08-28T14:05:55.238Z,31.10
2018-08-28T14:08:24.262Z,30.30
2018-08-28T14:10:53.239Z,30.10
2018-08-28T14:13:23.622Z,30.00
2018-08-28T14:15:52.513Z,30.30
2018-08-28T14:18:22.682Z,30.20
2018-08-28T14:20:51.654Z,30.50
2018-08-28T14:23:20.598Z,30.60
2018-08-28T14:25:49.550Z,30.60
2018-08-28T14:28:18.527Z,30.80
2018-08-28T14:30:47.447Z,31.20
2018-08-28T14:33:16.572Z,31.30
2018-08-28T14:35:45.974Z,31.20
2018-08-28T14:38:15.090Z,31.50
2018-08-28T14:40:45.078Z,31.30
2018-08-28T14:43:13.970Z,31.20
2018-08-28T14:45:43.606Z,31.30
2018-08-28T14:48:12.950Z,31.40
2018-08-28T14:50:42.431Z,31.10
2018-08-28T14:53:12.311Z,31.20
2018-08-28T14:55:41.830Z,31.20
2018-08-28T14:58:10.922Z,31.50
2018-08-28T15:00:40.306Z,31.50
2018-08-28T15:03:11.503Z,31.60
2018-08-28T15:05:41.695Z,31.70
2018-08-28T15:08:10.855Z,31.70
2018-08-28T15:10:39.894Z,32.00
2018-08-28T15:13:09.091Z,32.00
2018-08-28T15:15:38.077Z,31.20
2018-08-28T15:18:09.601Z,31.50
2018-08-28T15:20:39.499Z,31.30
2018-08-28T15:23:10.790Z,31.40
2018-08-28T15:25:41.328Z,31.40
2018-08-28T15:28:10.467Z,31.60
2018-08-28T15:30:39.652Z,31.60
2018-08-28T15:33:08.972Z,31.30
2018-08-28T15:35:38.074Z,31.00
2018-08-28T15:38:09.254Z,31.20
2018-08-28T15:40:38.525Z,30.90
2018-08-28T15:43:07.573Z,31.00
2018-08-28T15:45:36.774Z,30.80
2018-08-28T15:48:05.878Z,31.00
2018-08-28T15:50:34.779Z,31.30
2018-08-28T15:53:04.639Z,30.80
2018-08-28T15:55:33.541Z,30.80
2018-08-28T15:58:02.625Z,30.20
2018-08-28T16:00:32.470Z,29.70
2018-08-28T16:03:01.380Z,29.20
2018-08-28T16:05:30.286Z,28.90
2018-08-28T16:07:59.218Z,28.70
2018-08-28T16:10:28.173Z,28.70
2018-08-28T16:12:57.128Z,28.60
2018-08-28T16:15:27.025Z,28.70
2018-08-28T16:17:56.230Z,28.90
2018-08-28T16:20:25.282Z,29.10
2018-08-28T16:22:56.636Z,29.40
2018-08-28T16:25:25.878Z,29.10
2018-08-28T16:27:54.800Z,29.10
2018-08-28T16:30:23.727Z,29.20
2018-08-28T16:32:52.743Z,28.90
2018-08-28T16:35:21.663Z,28.20
2018-08-28T16:37:50.551Z,27.90
2018-08-28T16:40:21.722Z,27.40
2018-08-28T16:42:50.673Z,27.10
2018-08-28T16:45:19.550Z,27.00
2018-08-28T16:47:48.501Z,27.00
2018-08-28T16:50:17.647Z,26.60
2018-08-28T16:52:51.598Z,26.40
2018-08-28T16:55:20.836Z,26.30
2018-08-28T16:57:49.935Z,26.40
2018-08-28T17:00:18.978Z,26.40
2018-08-28T17:02:47.976Z,26.20
2018-08-28T17:05:16.994Z,26.10
2018-08-28T17:07:46.097Z,26.00
2018-08-28T17:10:15.081Z,26.00
2018-08-28T17:12:44.886Z,25.80
2018-08-28T17:15:13.975Z,25.50
2018-08-28T17:17:42.930Z,25.50
2018-08-28T17:20:11.971Z,25.50
2018-08-28T17:22:41.206Z,25.50
2018-08-28T17:25:10.096Z,25.40
2018-08-28T17:27:38.966Z,25.20
2018-08-28T17:30:07.907Z,25.10
2018-08-28T17:32:36.818Z,25.10
2018-08-28T17:35:05.714Z,25.00
2018-08-28T17:37:34.662Z,24.90
2018-08-28T17:40:03.627Z,24.90
2018-08-28T17:42:32.600Z,24.90
2018-08-28T17:45:01.427Z,24.80
2018-08-28T17:47:30.434Z,24.60
2018-08-28T17:49:59.315Z,24.40
2018-08-28T17:52:28.226Z,24.40
2018-08-28T17:54:57.143Z,24.30
2018-08-28T17:57:26.068Z,24.20
2018-08-28T17:59:54.990Z,24.00
2018-08-28T18:02:24.246Z,23.90
2018-08-28T18:04:53.187Z,23.80
2018-08-28T18:07:22.082Z,23.60
2018-08-28T18:09:51.322Z,23.50
2018-08-28T18:12:20.301Z,23.30
2018-08-28T18:14:49.205Z,23.20
2018-08-28T18:17:18.193Z,23.00
2018-08-28T18:19:47.066Z,22.80
2018-08-28T18:22:15.949Z,22.60
2018-08-28T18:24:44.854Z,22.50
2018-08-28T18:27:13.762Z,22.20
2018-08-28T18:29:42.666Z,22.20
2018-08-28T18:32:11.562Z,22.10
2018-08-28T18:34:40.567Z,21.90
2018-08-28T18:37:09.482Z,21.80
2018-08-28T18:39:38.775Z,21.70
2018-08-28T18:42:07.783Z,21.70
2018-08-28T18:44:37.326Z,21.60
2018-08-28T18:47:08.233Z,21.50
2018-08-28T18:49:37.070Z,21.30
2018-08-28T18:52:06.074Z,21.20
2018-08-28T18:54:34.963Z,21.10
2018-08-28T18:57:03.863Z,21.10
2018-08-28T18:59:32.774Z,21.00
2018-08-28T19:02:01.709Z,21.00
2018-08-28T19:04:30.607Z,21.00
2018-08-28T19:06:59.545Z,20.80
2018-08-28T19:09:28.609Z,20.70
2018-08-28T19:11:57.506Z,20.50
2018-08-28T19:14:26.462Z,20.30
2018-08-28T19:16:55.386Z,20.20
2018-08-28T19:19:24.473Z,20.30
2018-08-28T19:21:53.583Z,20.40
2018-08-28T19:24:22.573Z,20.30
2018-08-28T19:26:51.502Z,20.30
2018-08-28T19:29:20.497Z,20.20
2018-08-28T19:31:49.566Z,20.10
2018-08-28T19:34:18.339Z,20.00
2018-08-28T19:36:47.305Z,19.90
2018-08-28T19:39:16.174Z,19.90
2018-08-28T19:41:45.487Z,19.80
2018-08-28T19:44:14.473Z,19.70
2018-08-28T19:46:43.331Z,19.50
2018-08-28T19:49:12.303Z,19.40
2018-08-28T19:51:41.482Z,19.10
2018-08-28T19:54:10.578Z,18.90
2018-08-28T19:56:39.682Z,18.70
2018-08-28T19:59:08.622Z,18.60
2018-08-28T20:01:38.457Z,18.60
2018-08-28T20:04:07.516Z,18.60
2018-08-28T20:06:36.324Z,18.50
2018-08-28T20:09:05.598Z,18.50
2018-08-28T20:11:34.504Z,18.50
2018-08-28T20:14:03.533Z,18.50
2018-08-28T20:16:32.523Z,18.50
2018-08-28T20:19:01.478Z,18.40
2018-08-28T20:21:30.766Z,18.40
2018-08-28T20:23:59.721Z,18.30
2018-08-28T20:26:28.699Z,18.10
2018-08-28T20:28:57.638Z,18.00
2018-08-28T20:31:26.782Z,18.00
2018-08-28T20:33:57.308Z,18.00
2018-08-28T20:36:26.307Z,18.00
2018-08-28T20:38:55.382Z,17.80
2018-08-28T20:41:24.446Z,17.70
2018-08-28T20:43:56.865Z,17.60
2018-08-28T20:46:25.771Z,17.50
2018-08-28T20:48:54.775Z,17.60
2018-08-28T20:51:23.668Z,17.60
2018-08-28T20:53:52.578Z,17.50
2018-08-28T20:56:21.482Z,17.40
2018-08-28T20:58:50.416Z,17.30
2018-08-28T21:01:19.332Z,17.20
2018-08-28T21:03:48.305Z,17.30
2018-08-28T21:06:17.214Z,17.40
2018-08-28T21:08:46.139Z,17.30
2018-08-28T21:11:15.114Z,17.30
2018-08-28T21:13:44.022Z,17.30
2018-08-28T21:16:12.961Z,17.10
2018-08-28T21:18:41.894Z,17.20
2018-08-28T21:21:10.794Z,17.10
2018-08-28T21:23:39.722Z,17.00
2018-08-28T21:26:08.606Z,16.80
2018-08-28T21:28:37.549Z,16.90
2018-08-28T21:31:06.687Z,16.80
2018-08-28T21:33:35.706Z,16.60
2018-08-28T21:36:19.022Z,16.70
2018-08-28T21:38:48.576Z,16.70
2018-08-28T21:41:19.262Z,16.70
2018-08-28T21:43:48.566Z,16.70
2018-08-28T21:46:18.039Z,16.60
2018-08-28T21:48:47.914Z,16.50
2018-08-28T21:51:16.950Z,16.40
2018-08-28T21:53:54.524Z,16.40
2018-08-28T21:56:24.418Z,16.30
2018-08-28T21:58:55.729Z,16.40
2018-08-28T22:01:39.627Z,16.30
2018-08-28T22:04:10.838Z,16.10
2018-08-28T22:06:47.224Z,16.10
2018-08-28T22:09:16.461Z,16.00
2018-08-28T22:11:45.768Z,15.80
2018-08-28T22:14:15.807Z,15.80
2018-08-28T22:16:46.243Z,15.80
2018-08-28T22:19:15.418Z,15.80
2018-08-28T22:21:46.233Z,15.80
2018-08-28T22:24:16.246Z,15.80
2018-08-28T22:26:47.047Z,15.80
2018-08-28T22:29:16.854Z,15.70
2018-08-28T22:31:46.333Z,15.70
2018-08-28T22:34:15.564Z,15.70
2018-08-28T22:36:47.218Z,15.70
2018-08-28T22:39:17.690Z,15.60
2018-08-28T22:41:49.162Z,15.50
2018-08-28T22:44:19.778Z,15.50
2018-08-28T22:46:48.851Z,15.50
2018-08-28T22:49:17.802Z,15.50
2018-08-28T22:51:46.911Z,15.50
2018-08-28T22:54:15.992Z,15.30
2018-08-28T22:56:57.803Z,15.10
2018-08-28T22:59:29.322Z,15.30
2018-08-28T23:01:58.258Z,15.30
2018-08-28T23:04:27.350Z,15.10
2018-08-28T23:06:56.308Z,15.00
2018-08-28T23:09:25.268Z,14.90
2018-08-28T23:11:54.165Z,14.90
2018-08-28T23:14:23.126Z,14.90
2018-08-28T23:16:52.030Z,15.00
2018-08-28T23:19:20.930Z,15.00
2018-08-28T23:21:49.838Z,14.90
2018-08-28T23:24:18.822Z,14.90
2018-08-28T23:26:47.707Z,14.80
2018-08-28T23:29:16.601Z,14.70
2018-08-28T23:31:45.482Z,14.70
2018-08-28T23:34:14.373Z,14.70
2018-08-28T23:36:43.267Z,14.60
2018-08-28T23:39:12.262Z,14.60
2018-08-28T23:41:41.718Z,14.60
2018-08-28T23:44:10.673Z,14.50
2018-08-28T23:46:39.561Z,14.60
2018-08-28T23:49:08.486Z,14.50
2018-08-28T23:51:37.395Z,14.40
2018-08-28T23:54:06.858Z,14.30
2018-08-28T23:56:35.751Z,14.20
2018-08-28T23:59:04.959Z,14.20
